sensor_id;sensor_type;location;lat;lon;timestamp;pressure;altitude;pressure_sealevel;temperature;humidity
27220;BME280;45274;52.266;10.790;2024-03-08T00:01:39;64198.78;;;-141.81;100.00
27220;BME280;45274;52.266;10.790;2024-03-08T00:04:05;64198.78;;;-141.81;100.00
27220;BME280;45274;52.266;10.790;2024-03-08T00:06:32;64198.78;;;-141.81;100.00
27220;BME280;45274;52.266;10.790;2024-03-08T00:08:58;64198.78;;;-141.81;100.00
27220;BME280;45274;52.266;10.790;2024-03-08T00:11:23;64198.78;;;-141.81;100.00
27220;BME280;45274;52.266;10.790;2024-03-08T00:13:52;64198.78;;;-141.81;100.00
27220;BME280;45274;52.266;10.790;2024-03-08T00:16:18;64198.78;;;-141.81;100.00
27220;BME280;45274;52.266;10.790;2024-03-08T00:18:45;64198.78;;;-141.81;100.00
27220;BME280;45274;52.266;10.790;2024-03-08T00:21:10;64198.78;;;-141.81;100.00
27220;BME280;45274;52.266;10.790;2024-03-08T00:23:37;64198.78;;;-141.81;100.00
27220;BME280;45274;52.266;10.790;2024-03-08T00:26:02;64198.78;;;-141.81;100.00
27220;BME280;45274;52.266;10.790;2024-03-08T00:28:29;64198.78;;;-141.81;100.00
27220;BME280;45274;52.266;10.790;2024-03-08T00:30:56;64198.78;;;-141.81;100.00
27220;BME280;45274;52.266;10.790;2024-03-08T00:33:21;64198.78;;;-141.81;100.00
27220;BME280;45274;52.266;10.790;2024-03-08T00:35:47;64198.78;;;-141.81;100.00
27220;BME280;45274;52.266;10.790;2024-03-08T00:38:13;64198.78;;;-141.81;100.00
27220;BME280;45274;52.266;10.790;2024-03-08T00:40:38;64198.78;;;-141.81;100.00
27220;BME280;45274;52.266;10.790;2024-03-08T00:43:05;64198.78;;;-141.81;100.00
27220;BME280;45274;52.266;10.790;2024-03-08T00:45:31;64198.78;;;-141.81;100.00
27220;BME280;45274;52.266;10.790;2024-03-08T00:47:56;64198.78;;;-141.81;100.00
27220;BME280;45274;52.266;10.790;2024-03-08T00:50:22;64198.78;;;-141.81;100.00
27220;BME280;45274;52.266;10.790;2024-03-08T00:52:47;64198.78;;;-141.81;100.00
27220;BME280;45274;52.266;10.790;2024-03-08T00:55:13;64198.78;;;-141.81;100.00
27220;BME280;45274;52.266;10.790;2024-03-08T00:57:38;64198.78;;;-141.81;100.00
27220;BME280;45274;52.266;10.790;2024-03-08T01:00:05;64198.78;;;-141.81;100.00
27220;BME280;45274;52.266;10.790;2024-03-08T01:02:32;64198.78;;;-141.81;100.00
27220;BME280;45274;52.266;10.790;2024-03-08T01:05:00;64198.78;;;-141.81;100.00
27220;BME280;45274;52.266;10.790;2024-03-08T01:07:26;64198.78;;;-141.81;100.00
27220;BME280;45274;52.266;10.790;2024-03-08T01:09:51;64198.78;;;-141.81;100.00
27220;BME280;45274;52.266;10.790;2024-03-08T01:12:16;64198.78;;;-141.81;100.00
27220;BME280;45274;52.266;10.790;2024-03-08T01:14:42;64198.78;;;-141.81;100.00
27220;BME280;45274;52.266;10.790;2024-03-08T01:17:07;64198.78;;;-141.81;100.00
27220;BME280;45274;52.266;10.790;2024-03-08T01:19:35;64198.78;;;-141.81;100.00
27220;BME280;45274;52.266;10.790;2024-03-08T01:22:01;64198.78;;;-141.81;100.00
27220;BME280;45274;52.266;10.790;2024-03-08T01:24:26;64198.78;;;-141.81;100.00
27220;BME280;45274;52.266;10.790;2024-03-08T01:26:52;64198.78;;;-141.81;100.00
27220;BME280;45274;52.266;10.790;2024-03-08T01:29:17;64198.78;;;-141.81;100.00
27220;BME280;45274;52.266;10.790;2024-03-08T01:31:42;64198.78;;;-141.81;100.00
27220;BME280;45274;52.266;10.790;2024-03-08T01:34:08;64198.78;;;-141.81;100.00
27220;BME280;45274;52.266;10.790;2024-03-08T01:36:33;64198.78;;;-141.81;100.00
27220;BME280;45274;52.266;10.790;2024-03-08T01:39:00;64198.78;;;-141.81;100.00
27220;BME280;45274;52.266;10.790;2024-03-08T01:41:25;64198.78;;;-141.81;100.00
27220;BME280;45274;52.266;10.790;2024-03-08T01:43:53;64198.78;;;-141.81;100.00
27220;BME280;45274;52.266;10.790;2024-03-08T01:46:19;64198.78;;;-141.81;100.00
27220;BME280;45274;52.266;10.790;2024-03-08T01:48:47;64198.78;;;-141.81;100.00
27220;BME280;45274;52.266;10.790;2024-03-08T01:51:12;64198.78;;;-141.81;100.00
27220;BME280;45274;52.266;10.790;2024-03-08T01:53:40;64198.78;;;-141.81;100.00
27220;BME280;45274;52.266;10.790;2024-03-08T01:56:07;64198.78;;;-141.81;100.00
27220;BME280;45274;52.266;10.790;2024-03-08T01:58:34;64198.78;;;-141.81;100.00
27220;BME280;45274;52.266;10.790;2024-03-08T02:01:01;64198.78;;;-141.81;100.00
27220;BME280;45274;52.266;10.790;2024-03-08T02:03:29;64198.78;;;-141.81;100.00
27220;BME280;45274;52.266;10.790;2024-03-08T02:05:56;64198.78;;;-141.81;100.00
27220;BME280;45274;52.266;10.790;2024-03-08T02:08:24;64198.78;;;-141.81;100.00
27220;BME280;45274;52.266;10.790;2024-03-08T02:10:50;64198.78;;;-141.81;100.00
27220;BME280;45274;52.266;10.790;2024-03-08T02:13:16;64198.78;;;-141.81;100.00
27220;BME280;45274;52.266;10.790;2024-03-08T02:16:08;64198.78;;;-141.81;100.00
27220;BME280;45274;52.266;10.790;2024-03-08T02:18:34;64198.78;;;-141.81;100.00
27220;BME280;45274;52.266;10.790;2024-03-08T02:21:05;64198.78;;;-141.81;100.00
27220;BME280;45274;52.266;10.790;2024-03-08T02:23:32;64198.78;;;-141.81;100.00
27220;BME280;45274;52.266;10.790;2024-03-08T02:25:58;64198.78;;;-141.81;100.00
27220;BME280;45274;52.266;10.790;2024-03-08T02:28:24;64198.78;;;-141.81;100.00
27220;BME280;45274;52.266;10.790;2024-03-08T02:30:54;64198.78;;;-141.81;100.00
27220;BME280;45274;52.266;10.790;2024-03-08T02:33:21;64198.78;;;-141.81;100.00
27220;BME280;45274;52.266;10.790;2024-03-08T02:35:48;64198.78;;;-141.81;100.00
27220;BME280;45274;52.266;10.790;2024-03-08T02:38:18;64198.78;;;-141.81;100.00
27220;BME280;45274;52.266;10.790;2024-03-08T02:40:45;64198.78;;;-141.81;100.00
27220;BME280;45274;52.266;10.790;2024-03-08T02:43:12;64198.78;;;-141.81;100.00
27220;BME280;45274;52.266;10.790;2024-03-08T02:45:38;64198.78;;;-141.81;100.00
27220;BME280;45274;52.266;10.790;2024-03-08T02:48:04;64198.78;;;-141.81;100.00
27220;BME280;45274;52.266;10.790;2024-03-08T02:50:32;64198.78;;;-141.81;100.00
27220;BME280;45274;52.266;10.790;2024-03-08T02:52:57;64198.78;;;-141.81;100.00
27220;BME280;45274;52.266;10.790;2024-03-08T02:55:23;64198.78;;;-141.81;100.00
27220;BME280;45274;52.266;10.790;2024-03-08T02:57:51;64198.78;;;-141.81;100.00
27220;BME280;45274;52.266;10.790;2024-03-08T03:00:17;64198.78;;;-141.81;100.00
27220;BME280;45274;52.266;10.790;2024-03-08T03:02:44;64198.78;;;-141.81;100.00
27220;BME280;45274;52.266;10.790;2024-03-08T03:05:10;64198.78;;;-141.81;100.00
27220;BME280;45274;52.266;10.790;2024-03-08T03:07:37;64198.78;;;-141.81;100.00
27220;BME280;45274;52.266;10.790;2024-03-08T03:10:03;64198.78;;;-141.81;100.00
27220;BME280;45274;52.266;10.790;2024-03-08T03:12:29;64198.78;;;-141.81;100.00
27220;BME280;45274;52.266;10.790;2024-03-08T03:14:56;64198.78;;;-141.81;100.00
27220;BME280;45274;52.266;10.790;2024-03-08T03:17:25;64198.78;;;-141.81;100.00
27220;BME280;45274;52.266;10.790;2024-03-08T03:19:51;64198.78;;;-141.81;100.00
27220;BME280;45274;52.266;10.790;2024-03-08T03:22:19;64198.78;;;-141.81;100.00
27220;BME280;45274;52.266;10.790;2024-03-08T03:24:45;64198.78;;;-141.81;100.00
27220;BME280;45274;52.266;10.790;2024-03-08T03:27:14;64198.78;;;-141.81;100.00
27220;BME280;45274;52.266;10.790;2024-03-08T03:29:41;64198.78;;;-141.81;100.00
27220;BME280;45274;52.266;10.790;2024-03-08T03:32:14;64198.78;;;-141.81;100.00
27220;BME280;45274;52.266;10.790;2024-03-08T03:34:40;64198.78;;;-141.81;100.00
27220;BME280;45274;52.266;10.790;2024-03-08T03:37:06;64198.78;;;-141.81;100.00
27220;BME280;45274;52.266;10.790;2024-03-08T03:39:33;64198.78;;;-141.81;100.00
27220;BME280;45274;52.266;10.790;2024-03-08T03:42:00;64198.78;;;-141.81;100.00
27220;BME280;45274;52.266;10.790;2024-03-08T03:44:28;64198.78;;;-141.81;100.00
27220;BME280;45274;52.266;10.790;2024-03-08T03:46:53;64198.78;;;-141.81;100.00
27220;BME280;45274;52.266;10.790;2024-03-08T03:49:19;64198.78;;;-141.81;100.00
27220;BME280;45274;52.266;10.790;2024-03-08T03:51:44;64198.78;;;-141.81;100.00
27220;BME280;45274;52.266;10.790;2024-03-08T03:54:10;64198.78;;;-141.81;100.00
27220;BME280;45274;52.266;10.790;2024-03-08T03:56:36;64198.78;;;-141.81;100.00
27220;BME280;45274;52.266;10.790;2024-03-08T03:59:02;64198.78;;;-141.81;100.00
27220;BME280;45274;52.266;10.790;2024-03-08T04:01:27;64198.78;;;-141.81;100.00
27220;BME280;45274;52.266;10.790;2024-03-08T04:03:52;64198.78;;;-141.81;100.00
27220;BME280;45274;52.266;10.790;2024-03-08T04:06:18;64198.78;;;-141.81;100.00
27220;BME280;45274;52.266;10.790;2024-03-08T04:08:43;64198.78;;;-141.81;100.00
27220;BME280;45274;52.266;10.790;2024-03-08T04:11:08;64198.78;;;-141.81;100.00
27220;BME280;45274;52.266;10.790;2024-03-08T04:13:34;64198.78;;;-141.81;100.00
27220;BME280;45274;52.266;10.790;2024-03-08T04:16:01;64198.78;;;-141.81;100.00
27220;BME280;45274;52.266;10.790;2024-03-08T04:18:27;64198.78;;;-141.81;100.00
27220;BME280;45274;52.266;10.790;2024-03-08T04:20:53;64198.78;;;-141.81;100.00
27220;BME280;45274;52.266;10.790;2024-03-08T04:23:18;64198.78;;;-141.81;100.00
27220;BME280;45274;52.266;10.790;2024-03-08T04:25:44;64198.78;;;-141.81;100.00
27220;BME280;45274;52.266;10.790;2024-03-08T04:28:10;64198.78;;;-141.81;100.00
27220;BME280;45274;52.266;10.790;2024-03-08T04:30:40;64198.78;;;-141.81;100.00
27220;BME280;45274;52.266;10.790;2024-03-08T04:33:05;64198.78;;;-141.81;100.00
27220;BME280;45274;52.266;10.790;2024-03-08T04:35:34;64198.78;;;-141.81;100.00
27220;BME280;45274;52.266;10.790;2024-03-08T04:37:59;64198.78;;;-141.81;100.00
27220;BME280;45274;52.266;10.790;2024-03-08T04:40:24;64198.78;;;-141.81;100.00
27220;BME280;45274;52.266;10.790;2024-03-08T04:42:50;64198.78;;;-141.81;100.00
27220;BME280;45274;52.266;10.790;2024-03-08T04:45:17;64198.78;;;-141.81;100.00
27220;BME280;45274;52.266;10.790;2024-03-08T04:47:43;64198.78;;;-141.81;100.00
27220;BME280;45274;52.266;10.790;2024-03-08T04:50:09;64198.78;;;-141.81;100.00
27220;BME280;45274;52.266;10.790;2024-03-08T04:52:34;64198.78;;;-141.81;100.00
27220;BME280;45274;52.266;10.790;2024-03-08T04:55:01;64198.78;;;-141.81;100.00
27220;BME280;45274;52.266;10.790;2024-03-08T04:57:27;64198.78;;;-141.81;100.00
27220;BME280;45274;52.266;10.790;2024-03-08T04:59:53;64198.78;;;-141.81;100.00
27220;BME280;45274;52.266;10.790;2024-03-08T05:02:19;64198.78;;;-141.81;100.00
27220;BME280;45274;52.266;10.790;2024-03-08T05:04:44;64198.78;;;-141.81;100.00
27220;BME280;45274;52.266;10.790;2024-03-08T05:07:10;64198.78;;;-141.81;100.00
27220;BME280;45274;52.266;10.790;2024-03-08T05:09:35;64198.78;;;-141.81;100.00
27220;BME280;45274;52.266;10.790;2024-03-08T05:12:01;64198.78;;;-141.81;100.00
27220;BME280;45274;52.266;10.790;2024-03-08T05:14:26;64198.78;;;-141.81;100.00
27220;BME280;45274;52.266;10.790;2024-03-08T05:16:52;64198.78;;;-141.81;100.00
27220;BME280;45274;52.266;10.790;2024-03-08T05:19:19;64198.78;;;-141.81;100.00
27220;BME280;45274;52.266;10.790;2024-03-08T05:21:48;64198.78;;;-141.81;100.00
27220;BME280;45274;52.266;10.790;2024-03-08T05:24:14;64198.78;;;-141.81;100.00
27220;BME280;45274;52.266;10.790;2024-03-08T05:26:41;64198.78;;;-141.81;100.00
27220;BME280;45274;52.266;10.790;2024-03-08T05:29:07;64198.78;;;-141.81;100.00
27220;BME280;45274;52.266;10.790;2024-03-08T05:31:47;64198.78;;;-141.81;100.00
27220;BME280;45274;52.266;10.790;2024-03-08T05:34:13;64198.78;;;-141.81;100.00
27220;BME280;45274;52.266;10.790;2024-03-08T05:36:42;64198.78;;;-141.81;100.00
27220;BME280;45274;52.266;10.790;2024-03-08T05:39:11;64198.78;;;-141.81;100.00
27220;BME280;45274;52.266;10.790;2024-03-08T05:41:38;64198.78;;;-141.81;100.00
27220;BME280;45274;52.266;10.790;2024-03-08T05:44:04;64198.78;;;-141.81;100.00
27220;BME280;45274;52.266;10.790;2024-03-08T05:46:30;64198.78;;;-141.81;100.00
27220;BME280;45274;52.266;10.790;2024-03-08T05:48:55;64198.78;;;-141.81;100.00
27220;BME280;45274;52.266;10.790;2024-03-08T05:51:23;64198.78;;;-141.81;100.00
27220;BME280;45274;52.266;10.790;2024-03-08T05:53:48;64198.78;;;-141.81;100.00
27220;BME280;45274;52.266;10.790;2024-03-08T05:56:14;64198.78;;;-141.81;100.00
27220;BME280;45274;52.266;10.790;2024-03-08T05:58:39;64198.78;;;-141.81;100.00
27220;BME280;45274;52.266;10.790;2024-03-08T06:01:05;64198.78;;;-141.81;100.00
27220;BME280;45274;52.266;10.790;2024-03-08T06:03:34;64198.78;;;-141.81;100.00
27220;BME280;45274;52.266;10.790;2024-03-08T06:05:59;64198.78;;;-141.81;100.00
27220;BME280;45274;52.266;10.790;2024-03-08T06:08:25;64198.78;;;-141.81;100.00
27220;BME280;45274;52.266;10.790;2024-03-08T06:10:55;64198.78;;;-141.81;100.00
27220;BME280;45274;52.266;10.790;2024-03-08T06:13:21;64198.78;;;-141.81;100.00
27220;BME280;45274;52.266;10.790;2024-03-08T06:15:46;64198.78;;;-141.81;100.00
27220;BME280;45274;52.266;10.790;2024-03-08T06:18:12;64198.78;;;-141.81;100.00
27220;BME280;45274;52.266;10.790;2024-03-08T06:20:37;64198.78;;;-141.81;100.00
27220;BME280;45274;52.266;10.790;2024-03-08T06:23:02;64198.78;;;-141.81;100.00
27220;BME280;45274;52.266;10.790;2024-03-08T06:25:28;64198.78;;;-141.81;100.00
27220;BME280;45274;52.266;10.790;2024-03-08T06:27:53;64198.78;;;-141.81;100.00
27220;BME280;45274;52.266;10.790;2024-03-08T06:30:19;64198.78;;;-141.81;100.00
27220;BME280;45274;52.266;10.790;2024-03-08T06:32:45;64198.78;;;-141.81;100.00
27220;BME280;45274;52.266;10.790;2024-03-08T06:35:10;64198.78;;;-141.81;100.00
27220;BME280;45274;52.266;10.790;2024-03-08T06:37:36;64198.78;;;-141.81;100.00
27220;BME280;45274;52.266;10.790;2024-03-08T06:40:02;64198.78;;;-141.81;100.00
27220;BME280;45274;52.266;10.790;2024-03-08T06:42:33;64198.78;;;-141.81;100.00
27220;BME280;45274;52.266;10.790;2024-03-08T06:45:00;64198.78;;;-141.81;100.00
27220;BME280;45274;52.266;10.790;2024-03-08T06:47:31;64198.78;;;-141.81;100.00
27220;BME280;45274;52.266;10.790;2024-03-08T06:49:57;64198.78;;;-141.81;100.00
27220;BME280;45274;52.266;10.790;2024-03-08T06:52:22;64198.78;;;-141.81;100.00
27220;BME280;45274;52.266;10.790;2024-03-08T06:54:48;64198.78;;;-141.81;100.00
27220;BME280;45274;52.266;10.790;2024-03-08T06:57:14;64198.78;;;-141.81;100.00
27220;BME280;45274;52.266;10.790;2024-03-08T06:59:39;64198.78;;;-141.81;100.00
27220;BME280;45274;52.266;10.790;2024-03-08T07:02:05;64198.78;;;-141.81;100.00
27220;BME280;45274;52.266;10.790;2024-03-08T07:04:34;64198.78;;;-141.81;100.00
27220;BME280;45274;52.266;10.790;2024-03-08T07:07:03;64198.78;;;-141.81;100.00
27220;BME280;45274;52.266;10.790;2024-03-08T07:09:29;64198.78;;;-141.81;100.00
27220;BME280;45274;52.266;10.790;2024-03-08T07:11:54;64198.78;;;-141.81;100.00
27220;BME280;45274;52.266;10.790;2024-03-08T07:14:23;64198.78;;;-141.81;100.00
27220;BME280;45274;52.266;10.790;2024-03-08T07:16:49;64198.78;;;-141.81;100.00
27220;BME280;45274;52.266;10.790;2024-03-08T07:19:16;64198.78;;;-141.81;100.00
27220;BME280;45274;52.266;10.790;2024-03-08T07:21:44;64198.78;;;-141.81;100.00
27220;BME280;45274;52.266;10.790;2024-03-08T07:24:10;64198.78;;;-141.81;100.00
27220;BME280;45274;52.266;10.790;2024-03-08T07:26:45;64198.78;;;-141.81;100.00
27220;BME280;45274;52.266;10.790;2024-03-08T07:29:14;64198.78;;;-141.81;100.00
27220;BME280;45274;52.266;10.790;2024-03-08T07:31:40;64198.78;;;-141.81;100.00
27220;BME280;45274;52.266;10.790;2024-03-08T07:34:20;64198.78;;;-141.81;100.00
27220;BME280;45274;52.266;10.790;2024-03-08T07:36:46;64198.78;;;-141.81;100.00
27220;BME280;45274;52.266;10.790;2024-03-08T07:39:11;64198.78;;;-141.81;100.00
27220;BME280;45274;52.266;10.790;2024-03-08T07:41:38;64198.78;;;-141.81;100.00
27220;BME280;45274;52.266;10.790;2024-03-08T07:44:06;64198.78;;;-141.81;100.00
27220;BME280;45274;52.266;10.790;2024-03-08T07:46:31;64198.78;;;-141.81;100.00
27220;BME280;45274;52.266;10.790;2024-03-08T07:48:59;64198.78;;;-141.81;100.00
27220;BME280;45274;52.266;10.790;2024-03-08T07:51:25;64198.78;;;-141.81;100.00
27220;BME280;45274;52.266;10.790;2024-03-08T07:53:50;64198.78;;;-141.81;100.00
27220;BME280;45274;52.266;10.790;2024-03-08T07:56:16;64198.78;;;-141.81;100.00
27220;BME280;45274;52.266;10.790;2024-03-08T07:58:44;64198.78;;;-141.81;100.00
27220;BME280;45274;52.266;10.790;2024-03-08T08:01:18;64198.78;;;-141.81;100.00
27220;BME280;45274;52.266;10.790;2024-03-08T08:03:44;64198.78;;;-141.81;100.00
27220;BME280;45274;52.266;10.790;2024-03-08T08:06:10;64198.78;;;-141.81;100.00
27220;BME280;45274;52.266;10.790;2024-03-08T08:08:41;64198.78;;;-141.81;100.00
27220;BME280;45274;52.266;10.790;2024-03-08T08:11:07;64198.78;;;-141.81;100.00
27220;BME280;45274;52.266;10.790;2024-03-08T08:13:35;64198.78;;;-141.81;100.00
27220;BME280;45274;52.266;10.790;2024-03-08T08:16:02;64198.78;;;-141.81;100.00
27220;BME280;45274;52.266;10.790;2024-03-08T08:18:27;64198.78;;;-141.81;100.00
27220;BME280;45274;52.266;10.790;2024-03-08T08:20:55;64198.78;;;-141.81;100.00
27220;BME280;45274;52.266;10.790;2024-03-08T08:23:20;64198.78;;;-141.81;100.00
27220;BME280;45274;52.266;10.790;2024-03-08T08:25:46;64198.78;;;-141.81;100.00
27220;BME280;45274;52.266;10.790;2024-03-08T08:28:17;64198.78;;;-141.81;100.00
27220;BME280;45274;52.266;10.790;2024-03-08T08:30:44;64198.78;;;-141.81;100.00
27220;BME280;45274;52.266;10.790;2024-03-08T08:33:09;64198.78;;;-141.81;100.00
27220;BME280;45274;52.266;10.790;2024-03-08T08:35:38;64198.78;;;-141.81;100.00
27220;BME280;45274;52.266;10.790;2024-03-08T08:38:07;64198.78;;;-141.81;100.00
27220;BME280;45274;52.266;10.790;2024-03-08T08:40:35;64198.78;;;-141.81;100.00
27220;BME280;45274;52.266;10.790;2024-03-08T08:43:02;64198.78;;;-141.81;100.00
27220;BME280;45274;52.266;10.790;2024-03-08T08:45:30;64198.78;;;-141.81;100.00
27220;BME280;45274;52.266;10.790;2024-03-08T08:47:56;64198.78;;;-141.81;100.00
27220;BME280;45274;52.266;10.790;2024-03-08T08:50:21;64198.78;;;-141.81;100.00
27220;BME280;45274;52.266;10.790;2024-03-08T08:52:50;64198.78;;;-141.81;100.00
27220;BME280;45274;52.266;10.790;2024-03-08T08:55:21;64198.78;;;-141.81;100.00
27220;BME280;45274;52.266;10.790;2024-03-08T08:57:50;64198.78;;;-141.81;100.00
27220;BME280;45274;52.266;10.790;2024-03-08T09:00:17;64198.78;;;-141.81;100.00
27220;BME280;45274;52.266;10.790;2024-03-08T09:02:44;64198.78;;;-141.81;100.00
27220;BME280;45274;52.266;10.790;2024-03-08T09:05:11;64198.78;;;-141.81;100.00
27220;BME280;45274;52.266;10.790;2024-03-08T09:07:45;64198.78;;;-141.81;100.00
27220;BME280;45274;52.266;10.790;2024-03-08T09:10:11;64198.78;;;-141.81;100.00
27220;BME280;45274;52.266;10.790;2024-03-08T09:12:38;64198.78;;;-141.81;100.00
27220;BME280;45274;52.266;10.790;2024-03-08T09:15:05;64198.78;;;-141.81;100.00
27220;BME280;45274;52.266;10.790;2024-03-08T09:17:30;64198.78;;;-141.81;100.00
27220;BME280;45274;52.266;10.790;2024-03-08T09:19:57;64198.78;;;-141.81;100.00
27220;BME280;45274;52.266;10.790;2024-03-08T09:22:22;64198.78;;;-141.81;100.00
27220;BME280;45274;52.266;10.790;2024-03-08T09:24:48;64198.78;;;-141.81;100.00
27220;BME280;45274;52.266;10.790;2024-03-08T09:27:13;64198.78;;;-141.81;100.00
27220;BME280;45274;52.266;10.790;2024-03-08T09:29:40;64198.78;;;-141.81;100.00
27220;BME280;45274;52.266;10.790;2024-03-08T09:32:05;64198.78;;;-141.81;100.00
27220;BME280;45274;52.266;10.790;2024-03-08T09:34:31;64198.78;;;-141.81;100.00
27220;BME280;45274;52.266;10.790;2024-03-08T09:36:56;64198.78;;;-141.81;100.00
27220;BME280;45274;52.266;10.790;2024-03-08T09:39:22;64198.78;;;-141.81;100.00
27220;BME280;45274;52.266;10.790;2024-03-08T09:41:48;64198.78;;;-141.81;100.00
27220;BME280;45274;52.266;10.790;2024-03-08T09:44:15;64198.78;;;-141.81;100.00
27220;BME280;45274;52.266;10.790;2024-03-08T09:46:40;64198.78;;;-141.81;100.00
27220;BME280;45274;52.266;10.790;2024-03-08T09:49:09;64198.78;;;-141.81;100.00
27220;BME280;45274;52.266;10.790;2024-03-08T09:51:36;64198.78;;;-141.81;100.00
27220;BME280;45274;52.266;10.790;2024-03-08T09:54:05;64198.78;;;-141.81;100.00
27220;BME280;45274;52.266;10.790;2024-03-08T09:56:32;64198.78;;;-141.81;100.00
27220;BME280;45274;52.266;10.790;2024-03-08T09:59:01;64198.78;;;-141.81;100.00
27220;BME280;45274;52.266;10.790;2024-03-08T10:01:45;64198.78;;;-141.81;100.00
27220;BME280;45274;52.266;10.790;2024-03-08T10:04:11;64198.78;;;-141.81;100.00
27220;BME280;45274;52.266;10.790;2024-03-08T10:06:37;64198.78;;;-141.81;100.00
27220;BME280;45274;52.266;10.790;2024-03-08T10:09:02;64198.78;;;-141.81;100.00
27220;BME280;45274;52.266;10.790;2024-03-08T10:11:28;64198.78;;;-141.81;100.00
27220;BME280;45274;52.266;10.790;2024-03-08T10:13:54;64198.78;;;-141.81;100.00
27220;BME280;45274;52.266;10.790;2024-03-08T10:16:19;64198.78;;;-141.81;100.00
27220;BME280;45274;52.266;10.790;2024-03-08T10:18:45;64198.78;;;-141.81;100.00
27220;BME280;45274;52.266;10.790;2024-03-08T10:21:11;64198.78;;;-141.81;100.00
27220;BME280;45274;52.266;10.790;2024-03-08T10:23:37;64198.78;;;-141.81;100.00
27220;BME280;45274;52.266;10.790;2024-03-08T10:26:10;64198.78;;;-141.81;100.00
27220;BME280;45274;52.266;10.790;2024-03-08T10:28:36;64198.78;;;-141.81;100.00
27220;BME280;45274;52.266;10.790;2024-03-08T10:31:01;64198.78;;;-141.81;100.00
27220;BME280;45274;52.266;10.790;2024-03-08T10:33:27;64198.78;;;-141.81;100.00
27220;BME280;45274;52.266;10.790;2024-03-08T10:35:53;64198.78;;;-141.81;100.00
27220;BME280;45274;52.266;10.790;2024-03-08T10:38:20;64198.78;;;-141.81;100.00
27220;BME280;45274;52.266;10.790;2024-03-08T10:40:48;64198.78;;;-141.81;100.00
27220;BME280;45274;52.266;10.790;2024-03-08T10:43:28;64198.78;;;-141.81;100.00
27220;BME280;45274;52.266;10.790;2024-03-08T10:46:18;64198.78;;;-141.81;100.00
27220;BME280;45274;52.266;10.790;2024-03-08T10:48:49;64198.78;;;-141.81;100.00
27220;BME280;45274;52.266;10.790;2024-03-08T10:51:15;64198.78;;;-141.81;100.00
27220;BME280;45274;52.266;10.790;2024-03-08T10:53:41;64198.78;;;-141.81;100.00
27220;BME280;45274;52.266;10.790;2024-03-08T10:56:07;64198.78;;;-141.81;100.00
27220;BME280;45274;52.266;10.790;2024-03-08T10:58:35;64198.78;;;-141.81;100.00
27220;BME280;45274;52.266;10.790;2024-03-08T11:01:02;64198.78;;;-141.81;100.00
27220;BME280;45274;52.266;10.790;2024-03-08T11:06:19;64198.78;;;-141.81;100.00
27220;BME280;45274;52.266;10.790;2024-03-08T11:08:48;64198.78;;;-141.81;100.00
27220;BME280;45274;52.266;10.790;2024-03-08T11:11:30;64198.78;;;-141.81;100.00
27220;BME280;45274;52.266;10.790;2024-03-08T11:13:56;64198.78;;;-141.81;100.00
27220;BME280;45274;52.266;10.790;2024-03-08T11:18:50;64198.78;;;-141.81;100.00
27220;BME280;45274;52.266;10.790;2024-03-08T11:21:18;64198.78;;;-141.81;100.00
27220;BME280;45274;52.266;10.790;2024-03-08T11:24:06;100584.38;;;6.79;71.17
27220;BME280;45274;52.266;10.790;2024-03-08T11:26:31;100574.13;;;6.94;71.65
27220;BME280;45274;52.266;10.790;2024-03-08T11:34:31;100563.94;;;6.94;71.94
27220;BME280;45274;52.266;10.790;2024-03-08T11:36:58;100559.91;;;7.16;72.12
27220;BME280;45274;52.266;10.790;2024-03-08T11:39:24;100563.66;;;7.11;68.02
27220;BME280;45274;52.266;10.790;2024-03-08T11:41:49;100552.38;;;7.15;68.51
27220;BME280;45274;52.266;10.790;2024-03-08T11:44:15;100542.19;;;7.15;68.09
27220;BME280;45274;52.266;10.790;2024-03-08T11:46:42;100543.78;;;7.16;68.67
27220;BME280;45274;52.266;10.790;2024-03-08T11:49:12;100547.59;;;7.23;68.03
27220;BME280;45274;52.266;10.790;2024-03-08T11:51:38;100535.75;;;7.22;66.88
27220;BME280;45274;52.266;10.790;2024-03-08T11:54:03;100537.06;;;7.27;68.54
27220;BME280;45274;52.266;10.790;2024-03-08T11:56:29;100546.88;;;7.21;69.04
27220;BME280;45274;52.266;10.790;2024-03-08T11:58:56;100534.25;;;7.32;69.42
27220;BME280;45274;52.266;10.790;2024-03-08T12:01:22;100532.59;;;7.31;69.18
27220;BME280;45274;52.266;10.790;2024-03-08T12:03:56;100534.13;;;7.33;68.42
27220;BME280;45274;52.266;10.790;2024-03-08T12:06:25;100527.72;;;7.40;68.60
27220;BME280;45274;52.266;10.790;2024-03-08T12:08:52;100528.72;;;7.51;69.66
27220;BME280;45274;52.266;10.790;2024-03-08T12:11:19;100530.19;;;7.55;68.02
27220;BME280;45274;52.266;10.790;2024-03-08T12:13:49;100522.50;;;7.42;66.15
27220;BME280;45274;52.266;10.790;2024-03-08T12:16:20;100524.16;;;7.43;66.39
27220;BME280;45274;52.266;10.790;2024-03-08T12:18:48;100517.94;;;7.47;66.49
27220;BME280;45274;52.266;10.790;2024-03-08T12:21:14;100512.31;;;7.55;66.84
27220;BME280;45274;52.266;10.790;2024-03-08T12:23:44;100500.38;;;7.68;67.21
27220;BME280;45274;52.266;10.790;2024-03-08T12:28:40;100503.56;;;7.59;66.30
27220;BME280;45274;52.266;10.790;2024-03-08T12:31:07;100499.91;;;7.50;65.79
27220;BME280;45274;52.266;10.790;2024-03-08T12:33:56;100482.03;;;7.50;65.94
27220;BME280;45274;52.266;10.790;2024-03-08T12:36:24;100481.09;;;7.51;65.06